Time;durP1;ratioP1;P1;durP2;ratioP2;P2;SDS_P1;SDS_P2;PMS_P1;PMS_P2;Temp;Humidity;BMP_temperature;BMP_pressure;BME280_temperature;BME280_humidity;BME280_pressure;Samples;Min_cycle;Max_cycle;Signal;HPM_P1;HPM_P2
2024/03/09 00:01:18;;;;;;;136.40;61.70;;;;;;;;;;107190;1252;61126;-83
2024/03/09 00:03:44;;;;;;;133.00;63.40;;;;;;;;;;107136;1253;61221;-79
2024/03/09 00:06:12;;;;;;;137.20;60.20;;;;;;;;;;106524;1256;61329;-82
2024/03/09 00:08:38;;;;;;;122.40;58.40;;;;;;;;;;107191;1253;61306;-82
2024/03/09 00:11:07;;;;;;;133.00;60.70;;;;;;;;;;107150;1253;61250;-82
2024/03/09 00:13:35;;;;;;;123.40;57.40;;;;;;;;;;106994;1252;61260;-79
2024/03/09 00:16:03;;;;;;;128.20;62.20;;;;;;;;;;106574;1253;61244;-82
2024/03/09 00:18:32;;;;;;;127.70;59.60;;;;;;;;;;107132;1254;61258;-83
2024/03/09 00:20:58;;;;;;;115.60;52.40;;;;;;;;;;107210;1256;60254;-82
2024/03/09 00:23:26;;;;;;;122.80;58.50;;;;;;;;;;107138;1253;61221;-78
2024/03/09 00:25:53;;;;;;;132.50;56.80;;;;;;;;;;106468;1253;61376;-78
2024/03/09 00:28:21;;;;;;;132.30;60.30;;;;;;;;;;106287;1254;61273;-78
2024/03/09 00:30:47;;;;;;;127.50;56.40;;;;;;;;;;106499;1253;61200;-78
2024/03/09 00:33:13;;;;;;;115.10;53.60;;;;;;;;;;106550;1255;61271;-81
2024/03/09 00:35:41;;;;;;;116.00;48.10;;;;;;;;;;106554;1252;61231;-82
2024/03/09 00:38:08;;;;;;;105.90;47.50;;;;;;;;;;106577;1251;61237;-81
2024/03/09 00:40:35;;;;;;;121.70;52.10;;;;;;;;;;106526;1256;61214;-78
2024/03/09 00:43:03;;;;;;;127.10;57.20;;;;;;;;;;106550;1256;61340;-78
2024/03/09 00:45:30;;;;;;;126.70;56.30;;;;;;;;;;106575;1251;61246;-82
2024/03/09 00:47:56;;;;;;;116.40;52.70;;;;;;;;;;107072;1251;61256;-81
2024/03/09 00:50:24;;;;;;;122.00;55.00;;;;;;;;;;107209;1251;61237;-81
2024/03/09 00:52:51;;;;;;;106.60;53.60;;;;;;;;;;107076;1254;61278;-77
2024/03/09 00:55:19;;;;;;;121.70;50.70;;;;;;;;;;106416;1253;61155;-78
2024/03/09 00:57:46;;;;;;;134.10;56.80;;;;;;;;;;106326;1258;61163;-79
2024/03/09 01:00:16;;;;;;;134.50;58.20;;;;;;;;;;106287;1259;62448;-78
2024/03/09 01:02:43;;;;;;;128.20;57.40;;;;;;;;;;106534;1253;61135;-78
2024/03/09 01:05:10;;;;;;;117.70;54.00;;;;;;;;;;106543;1254;63569;-81
2024/03/09 01:07:37;;;;;;;130.40;60.20;;;;;;;;;;107122;1253;61119;-81
2024/03/09 01:10:06;;;;;;;131.20;59.40;;;;;;;;;;107087;1252;61304;-81
2024/03/09 01:12:33;;;;;;;126.60;56.30;;;;;;;;;;109472;1252;62053;-79
2024/03/09 01:15:00;;;;;;;126.40;58.00;;;;;;;;;;109317;1252;59246;-82
2024/03/09 01:17:27;;;;;;;135.10;60.40;;;;;;;;;;107248;1253;61260;-81
2024/03/09 01:19:53;;;;;;;148.70;61.70;;;;;;;;;;107187;1252;61148;-82
2024/03/09 01:22:20;;;;;;;145.60;64.00;;;;;;;;;;107120;1253;61373;-78
2024/03/09 01:24:47;;;;;;;137.70;63.20;;;;;;;;;;106984;1252;61148;-82
2024/03/09 01:27:14;;;;;;;157.90;72.10;;;;;;;;;;109478;1253;58924;-78
2024/03/09 01:29:46;;;;;;;172.90;73.80;;;;;;;;;;109467;1252;59677;-82
2024/03/09 01:32:13;;;;;;;163.40;72.60;;;;;;;;;;109450;1252;59209;-82
2024/03/09 01:34:41;;;;;;;139.90;65.10;;;;;;;;;;109496;1253;59273;-79
2024/03/09 01:37:10;;;;;;;112.40;51.90;;;;;;;;;;109531;1251;62356;-81
2024/03/09 01:39:39;;;;;;;123.10;52.60;;;;;;;;;;109527;1251;59245;-78
2024/03/09 01:42:08;;;;;;;112.40;51.60;;;;;;;;;;109549;1251;59770;-78
2024/03/09 01:44:34;;;;;;;111.70;50.20;;;;;;;;;;108064;1251;61164;-77
2024/03/09 01:47:01;;;;;;;108.40;48.90;;;;;;;;;;106358;1251;61349;-84
2024/03/09 01:49:28;;;;;;;111.30;51.00;;;;;;;;;;107130;1251;61379;-83
2024/03/09 01:51:55;;;;;;;113.40;49.90;;;;;;;;;;107170;1255;61264;-83
2024/03/09 01:54:24;;;;;;;111.10;50.80;;;;;;;;;;107098;1253;61170;-80
2024/03/09 01:56:51;;;;;;;116.40;51.50;;;;;;;;;;106864;1259;61145;-84
2024/03/09 01:59:17;;;;;;;110.80;52.30;;;;;;;;;;106937;1253;61366;-81
2024/03/09 02:01:44;;;;;;;117.40;51.40;;;;;;;;;;106955;1253;61244;-84
2024/03/09 02:04:11;;;;;;;115.70;52.70;;;;;;;;;;107006;1253;61991;-80
2024/03/09 02:06:40;;;;;;;100.20;48.60;;;;;;;;;;106966;1253;61231;-80
2024/03/09 02:09:07;;;;;;;99.30;47.40;;;;;;;;;;106856;1253;61313;-83
2024/03/09 02:11:38;;;;;;;104.00;48.30;;;;;;;;;;106971;1253;61101;-80
2024/03/09 02:14:04;;;;;;;103.10;47.10;;;;;;;;;;106962;1253;61260;-84
2024/03/09 02:16:31;;;;;;;95.20;45.20;;;;;;;;;;106960;1253;61373;-83
2024/03/09 02:18:58;;;;;;;100.30;46.00;;;;;;;;;;107188;1253;61339;-80
2024/03/09 02:21:24;;;;;;;109.70;52.00;;;;;;;;;;106933;1254;59226;-84
2024/03/09 02:23:51;;;;;;;98.50;42.70;;;;;;;;;;107088;1253;61323;-84
2024/03/09 02:26:17;;;;;;;104.00;45.90;;;;;;;;;;106990;1257;61356;-80
2024/03/09 02:28:53;;;;;;;101.90;49.10;;;;;;;;;;106960;1253;61400;-81
2024/03/09 02:31:21;;;;;;;97.00;39.60;;;;;;;;;;107140;1256;61254;-83
2024/03/09 02:33:52;;;;;;;104.50;46.50;;;;;;;;;;108947;1253;61305;-84
2024/03/09 02:36:28;;;;;;;99.20;47.60;;;;;;;;;;107175;1256;61196;-80
2024/03/09 02:38:55;;;;;;;104.30;45.90;;;;;;;;;;107161;1253;61496;-84
2024/03/09 02:41:24;;;;;;;108.00;47.60;;;;;;;;;;107222;1254;61135;-84
2024/03/09 02:43:51;;;;;;;97.60;45.20;;;;;;;;;;107242;1253;60241;-80
2024/03/09 02:46:18;;;;;;;93.00;45.20;;;;;;;;;;107203;1256;61090;-80
2024/03/09 02:48:45;;;;;;;95.00;44.20;;;;;;;;;;107174;1250;61214;-83
2024/03/09 02:51:12;;;;;;;97.30;46.60;;;;;;;;;;107250;1251;62084;-83
2024/03/09 02:53:39;;;;;;;98.70;45.60;;;;;;;;;;107076;1254;61285;-80
2024/03/09 02:56:09;;;;;;;93.30;42.90;;;;;;;;;;106892;1254;60254;-83
2024/03/09 02:58:37;;;;;;;88.60;42.30;;;;;;;;;;107128;1253;61272;-83
2024/03/09 03:01:07;;;;;;;91.20;41.00;;;;;;;;;;107185;1256;61256;-84
2024/03/09 03:03:55;;;;;;;88.60;39.80;;;;;;;;;;106982;1254;61963;-80
2024/03/09 03:06:21;;;;;;;64.60;31.20;;;;;;;;;;107093;1252;61101;-80
2024/03/09 03:08:49;;;;;;;84.40;40.50;;;;;;;;;;107092;1253;61366;-84
2024/03/09 03:11:16;;;;;;;84.60;42.50;;;;;;;;;;107104;1253;61305;-80
2024/03/09 03:13:44;;;;;;;91.50;43.00;;;;;;;;;;109437;1253;59073;-77
2024/03/09 03:16:31;;;;;;;79.40;33.80;;;;;;;;;;109435;1253;60712;-82
2024/03/09 03:18:58;;;;;;;89.10;43.70;;;;;;;;;;109429;1253;58950;-78
2024/03/09 03:21:25;;;;;;;100.40;41.10;;;;;;;;;;109195;1253;59700;-79
2024/03/09 03:23:52;;;;;;;93.60;46.60;;;;;;;;;;106601;1256;61523;-80
2024/03/09 03:26:19;;;;;;;101.50;44.50;;;;;;;;;;107088;1253;61151;-84
2024/03/09 03:28:49;;;;;;;89.30;39.50;;;;;;;;;;106980;1253;61900;-84
2024/03/09 03:31:16;;;;;;;80.70;41.40;;;;;;;;;;106870;1259;59098;-85
2024/03/09 03:33:42;;;;;;;86.50;41.80;;;;;;;;;;106850;1259;61324;-83
2024/03/09 03:36:09;;;;;;;86.40;41.00;;;;;;;;;;107136;1253;61164;-83
2024/03/09 03:38:36;;;;;;;78.20;35.00;;;;;;;;;;107103;1253;61176;-84
2024/03/09 03:41:07;;;;;;;74.50;35.40;;;;;;;;;;107139;1253;61349;-80
2024/03/09 03:43:37;;;;;;;77.90;36.50;;;;;;;;;;107136;1253;61298;-80
2024/03/09 03:46:05;;;;;;;77.20;35.10;;;;;;;;;;107110;1253;61327;-83
2024/03/09 03:48:31;;;;;;;72.20;34.00;;;;;;;;;;107151;1256;61224;-83
2024/03/09 03:50:58;;;;;;;76.30;36.60;;;;;;;;;;107075;1257;59520;-84
2024/03/09 03:53:24;;;;;;;80.50;35.40;;;;;;;;;;107146;1253;61342;-84
2024/03/09 03:55:53;;;;;;;76.30;36.50;;;;;;;;;;107093;1253;61329;-84
2024/03/09 03:58:22;;;;;;;80.60;38.10;;;;;;;;;;107866;1256;61229;-80
2024/03/09 04:00:49;;;;;;;80.60;38.30;;;;;;;;;;107066;1253;61189;-84
2024/03/09 04:03:16;;;;;;;84.00;41.70;;;;;;;;;;107160;1254;61279;-83
2024/03/09 04:05:43;;;;;;;75.70;35.70;;;;;;;;;;108774;1254;61088;-82
2024/03/09 04:08:11;;;;;;;83.50;35.90;;;;;;;;;;109476;1253;58882;-79
2024/03/09 04:10:38;;;;;;;78.60;39.00;;;;;;;;;;108800;1253;61218;-82
2024/03/09 04:13:05;;;;;;;76.60;34.00;;;;;;;;;;107100;1253;61234;-79
2024/03/09 04:15:33;;;;;;;73.50;35.80;;;;;;;;;;106352;1253;61319;-78
2024/03/09 04:18:02;;;;;;;70.10;37.70;;;;;;;;;;106491;1253;61199;-83
2024/03/09 04:20:33;;;;;;;70.10;33.80;;;;;;;;;;107088;1253;61239;-83
2024/03/09 04:23:03;;;;;;;67.30;32.60;;;;;;;;;;107140;1252;61344;-83
2024/03/09 04:25:29;;;;;;;72.60;35.90;;;;;;;;;;109387;1253;58912;-79
2024/03/09 04:27:57;;;;;;;63.40;32.90;;;;;;;;;;109475;1252;59327;-82
2024/03/09 04:30:25;;;;;;;71.50;33.10;;;;;;;;;;109480;1253;61976;-82
2024/03/09 04:32:55;;;;;;;59.10;32.40;;;;;;;;;;109459;1253;59026;-78
2024/03/09 04:35:24;;;;;;;63.10;30.10;;;;;;;;;;109486;1251;59040;-79
2024/03/09 04:37:52;;;;;;;67.80;29.60;;;;;;;;;;109467;1253;58959;-79
2024/03/09 04:40:19;;;;;;;65.20;32.00;;;;;;;;;;107114;1253;61154;-82
2024/03/09 04:42:46;;;;;;;69.70;34.00;;;;;;;;;;106611;1252;61250;-80
2024/03/09 04:45:13;;;;;;;69.30;31.80;;;;;;;;;;107136;1255;61061;-82
2024/03/09 04:47:39;;;;;;;64.10;32.20;;;;;;;;;;107199;1256;61266;-84
2024/03/09 04:50:08;;;;;;;72.00;33.40;;;;;;;;;;107116;1251;61225;-80
2024/03/09 04:52:35;;;;;;;58.30;28.80;;;;;;;;;;107185;1252;61138;-80
2024/03/09 04:55:01;;;;;;;73.50;34.10;;;;;;;;;;107320;1252;62194;-84
2024/03/09 04:57:34;;;;;;;54.90;27.80;;;;;;;;;;109473;1253;58979;-78
2024/03/09 05:00:01;;;;;;;67.50;32.90;;;;;;;;;;109330;1258;61012;-78
2024/03/09 05:02:29;;;;;;;80.80;35.80;;;;;;;;;;109448;1253;59241;-79
2024/03/09 05:04:55;;;;;;;68.90;34.20;;;;;;;;;;106619;1253;61474;-81
2024/03/09 05:07:24;;;;;;;65.70;32.10;;;;;;;;;;106394;1253;61344;-83
2024/03/09 05:09:51;;;;;;;69.00;31.10;;;;;;;;;;106455;1253;61217;-79
2024/03/09 05:12:18;;;;;;;64.30;32.00;;;;;;;;;;106325;1253;61512;-78
2024/03/09 05:14:45;;;;;;;70.60;32.40;;;;;;;;;;106487;1254;61843;-78
2024/03/09 05:17:14;;;;;;;62.20;26.50;;;;;;;;;;106501;1254;61225;-81
2024/03/09 05:19:40;;;;;;;71.00;32.80;;;;;;;;;;106291;1252;61885;-79
2024/03/09 05:22:07;;;;;;;73.20;33.20;;;;;;;;;;106448;1254;61265;-80
2024/03/09 05:24:34;;;;;;;69.70;35.80;;;;;;;;;;106890;1253;61295;-80
2024/03/09 05:27:01;;;;;;;70.70;31.00;;;;;;;;;;107051;1253;61439;-80
2024/03/09 05:29:27;;;;;;;76.60;34.80;;;;;;;;;;107117;1252;61218;-83
2024/03/09 05:31:54;;;;;;;65.20;32.10;;;;;;;;;;107068;1254;61238;-80
2024/03/09 05:34:20;;;;;;;69.50;34.00;;;;;;;;;;107198;1254;61328;-80
2024/03/09 05:36:47;;;;;;;71.90;31.50;;;;;;;;;;107122;1254;61106;-83
2024/03/09 05:39:15;;;;;;;66.20;33.10;;;;;;;;;;107090;1251;61327;-80
2024/03/09 05:41:42;;;;;;;77.60;35.40;;;;;;;;;;107197;1256;61710;-83
2024/03/09 05:44:08;;;;;;;69.30;32.80;;;;;;;;;;107262;1254;62004;-80
2024/03/09 05:46:35;;;;;;;63.40;33.70;;;;;;;;;;106859;1256;237453;-81
2024/03/09 05:49:05;;;;;;;63.50;31.80;;;;;;;;;;107249;1251;61107;-83
2024/03/09 05:51:31;;;;;;;63.00;29.60;;;;;;;;;;107130;1256;61105;-80
2024/03/09 05:53:57;;;;;;;75.00;33.00;;;;;;;;;;107003;1258;61220;-80
2024/03/09 05:56:24;;;;;;;68.30;33.70;;;;;;;;;;106961;1258;61397;-80
2024/03/09 05:58:50;;;;;;;58.80;28.80;;;;;;;;;;106983;1254;61148;-84
2024/03/09 06:01:17;;;;;;;77.00;34.30;;;;;;;;;;107078;1256;61359;-83
2024/03/09 06:03:43;;;;;;;71.30;35.60;;;;;;;;;;107078;1256;61253;-80
2024/03/09 06:06:11;;;;;;;68.40;34.20;;;;;;;;;;107004;1252;61153;-83
2024/03/09 06:08:38;;;;;;;64.70;33.60;;;;;;;;;;107128;1254;62091;-82
2024/03/09 06:11:07;;;;;;;64.50;34.30;;;;;;;;;;106484;1256;61341;-78
2024/03/09 06:13:33;;;;;;;69.70;32.50;;;;;;;;;;106490;1256;61198;-78
2024/03/09 06:16:00;;;;;;;69.10;37.10;;;;;;;;;;106360;1254;62314;-81
2024/03/09 06:18:27;;;;;;;72.30;34.80;;;;;;;;;;107017;1254;61176;-82
2024/03/09 06:20:55;;;;;;;74.20;40.10;;;;;;;;;;107051;1254;61072;-81
2024/03/09 06:23:22;;;;;;;73.10;40.80;;;;;;;;;;106447;1253;61199;-78
2024/03/09 06:25:49;;;;;;;77.10;39.80;;;;;;;;;;106506;1253;61203;-81
2024/03/09 06:28:15;;;;;;;81.90;39.40;;;;;;;;;;106784;1253;61228;-78
2024/03/09 06:30:41;;;;;;;79.50;38.60;;;;;;;;;;106474;1253;62321;-80
2024/03/09 06:33:09;;;;;;;83.00;38.80;;;;;;;;;;107096;1253;61230;-80
2024/03/09 06:35:35;;;;;;;75.40;37.30;;;;;;;;;;107201;1251;61262;-80
2024/03/09 06:38:04;;;;;;;84.50;39.20;;;;;;;;;;107159;1254;61107;-83
2024/03/09 06:40:31;;;;;;;;;;;;;;;;;;107142;1251;61340;-83
2024/03/09 06:42:58;;;;;;;65.60;33.40;;;;;;;;;;107199;1254;61225;-80
2024/03/09 06:45:26;;;;;;;69.00;34.80;;;;;;;;;;109565;1251;60665;-78
2024/03/09 06:47:53;;;;;;;66.00;33.90;;;;;;;;;;109549;1251;58858;-82
2024/03/09 06:50:19;;;;;;;72.80;36.10;;;;;;;;;;109467;1251;60257;-79
2024/03/09 06:52:46;;;;;;;72.90;33.00;;;;;;;;;;109505;1252;58991;-79
2024/03/09 06:55:14;;;;;;;60.50;30.60;;;;;;;;;;109509;1252;58955;-79
2024/03/09 06:57:41;;;;;;;68.90;33.00;;;;;;;;;;109042;1256;61933;-81
2024/03/09 07:00:16;;;;;;;77.60;38.20;;;;;;;;;;106905;1257;61206;-82
2024/03/09 07:02:43;;;;;;;64.50;33.30;;;;;;;;;;106473;1254;61347;-78
2024/03/09 07:05:09;;;;;;;64.60;34.30;;;;;;;;;;106379;1267;61203;-82
2024/03/09 07:07:37;;;;;;;77.60;37.40;;;;;;;;;;106344;1259;61291;-82
2024/03/09 07:10:09;;;;;;;76.00;36.30;;;;;;;;;;109500;1253;61910;-83
2024/03/09 07:12:42;;;;;;;51.00;28.20;;;;;;;;;;109478;1252;59198;-79
2024/03/09 07:15:15;;;;;;;54.10;28.70;;;;;;;;;;109486;1253;59856;-83
2024/03/09 07:17:45;;;;;;;52.00;27.50;;;;;;;;;;109482;1253;59273;-79
2024/03/09 07:20:12;;;;;;;55.20;29.40;;;;;;;;;;109474;1253;59197;-83
2024/03/09 07:22:45;;;;;;;45.40;26.40;;;;;;;;;;109479;1256;62000;-83
2024/03/09 07:25:13;;;;;;;57.00;32.40;;;;;;;;;;108693;1256;61343;-82
2024/03/09 07:27:40;;;;;;;63.10;37.40;;;;;;;;;;107102;1254;61346;-83
2024/03/09 07:30:09;;;;;;;93.30;51.80;;;;;;;;;;107076;1254;61302;-79
2024/03/09 07:32:36;;;;;;;58.10;35.00;;;;;;;;;;108379;1253;61335;-82
2024/03/09 07:35:06;;;;;;;87.10;55.30;;;;;;;;;;107183;1251;61254;-79
2024/03/09 07:37:33;;;;;;;62.30;38.60;;;;;;;;;;107219;1254;59186;-82
2024/03/09 07:39:59;;;;;;;89.70;60.50;;;;;;;;;;107192;1256;61157;-78
2024/03/09 07:42:26;;;;;;;65.30;49.40;;;;;;;;;;106642;1257;61205;-83
2024/03/09 07:44:52;;;;;;;36.10;25.90;;;;;;;;;;107161;1255;61333;-83
2024/03/09 07:47:19;;;;;;;28.30;18.90;;;;;;;;;;107166;1256;61883;-79
2024/03/09 07:49:45;;;;;;;29.70;21.20;;;;;;;;;;107136;1251;61282;-83
2024/03/09 07:52:12;;;;;;;27.00;20.10;;;;;;;;;;107991;1255;59786;-84
2024/03/09 07:54:39;;;;;;;25.80;18.60;;;;;;;;;;107253;1259;61274;-79
2024/03/09 07:57:08;;;;;;;27.90;19.40;;;;;;;;;;109504;1252;59198;-84
2024/03/09 07:59:34;;;;;;;;;;;;;;;;;;109511;1253;60966;-80
2024/03/09 08:02:01;;;;;;;45.20;32.30;;;;;;;;;;109438;1252;59014;-79
2024/03/09 08:04:27;;;;;;;27.70;17.60;;;;;;;;;;108249;1254;61256;-84
2024/03/09 08:06:54;;;;;;;26.20;15.70;;;;;;;;;;106890;1251;62204;-80
2024/03/09 08:09:21;;;;;;;22.60;16.90;;;;;;;;;;106611;1256;61106;-84
2024/03/09 08:11:49;;;;;;;27.00;20.10;;;;;;;;;;107008;1252;61927;-84
2024/03/09 08:14:15;;;;;;;28.80;20.30;;;;;;;;;;107076;1253;61187;-84
2024/03/09 08:16:42;;;;;;;22.20;17.70;;;;;;;;;;107078;1256;61329;-85
2024/03/09 08:19:08;;;;;;;22.30;15.90;;;;;;;;;;107049;1254;61273;-85
2024/03/09 08:21:35;;;;;;;26.30;17.50;;;;;;;;;;107211;1251;61247;-79
2024/03/09 08:24:04;;;;;;;20.50;15.80;;;;;;;;;;107135;1254;61143;-79
2024/03/09 08:26:31;;;;;;;27.80;21.60;;;;;;;;;;106962;1251;61408;-79
2024/03/09 08:28:58;;;;;;;75.40;67.20;;;;;;;;;;107105;1256;61122;-85
2024/03/09 08:31:24;;;;;;;34.10;28.70;;;;;;;;;;107058;1254;61031;-85
2024/03/09 08:33:53;;;;;;;54.40;48.80;;;;;;;;;;109171;1251;59085;-81
2024/03/09 08:36:22;;;;;;;128.20;112.40;;;;;;;;;;109535;1251;61024;-80
2024/03/09 08:38:57;;;;;;;42.10;37.60;;;;;;;;;;109506;1251;59208;-80
2024/03/09 08:41:27;;;;;;;20.20;17.00;;;;;;;;;;109485;1255;59647;-80
2024/03/09 08:43:53;;;;;;;33.80;24.80;;;;;;;;;;109429;1253;58899;-85
2024/03/09 08:46:21;;;;;;;52.20;39.50;;;;;;;;;;107178;1253;59660;-85
2024/03/09 08:48:48;;;;;;;240.90;216.60;;;;;;;;;;107076;1256;61255;-85
2024/03/09 08:51:14;;;;;;;23.80;21.30;;;;;;;;;;107056;1254;61176;-80
2024/03/09 08:53:41;;;;;;;34.40;30.10;;;;;;;;;;107203;1254;61158;-80
2024/03/09 08:56:08;;;;;;;31.60;23.70;;;;;;;;;;107116;1254;61842;-80
2024/03/09 08:58:34;;;;;;;33.00;29.60;;;;;;;;;;107073;1257;61885;-86
2024/03/09 09:01:01;;;;;;;30.20;24.40;;;;;;;;;;107010;1253;61164;-86
2024/03/09 09:03:27;;;;;;;17.20;12.20;;;;;;;;;;107148;1257;61257;-80
2024/03/09 09:05:54;;;;;;;35.60;26.80;;;;;;;;;;107147;1252;61326;-80
2024/03/09 09:08:26;;;;;;;17.10;11.60;;;;;;;;;;106913;1253;62176;-85
2024/03/09 09:10:53;;;;;;;16.40;11.90;;;;;;;;;;107013;1254;61245;-84
2024/03/09 09:13:23;;;;;;;13.20;11.30;;;;;;;;;;107195;1255;61183;-79
2024/03/09 09:15:51;;;;;;;20.10;13.10;;;;;;;;;;107076;1256;61240;-79
2024/03/09 09:18:18;;;;;;;36.80;22.70;;;;;;;;;;106980;1254;61229;-79
2024/03/09 09:20:48;;;;;;;31.40;21.00;;;;;;;;;;107011;1254;61311;-80
2024/03/09 09:23:14;;;;;;;41.00;31.00;;;;;;;;;;106921;1254;59243;-84
2024/03/09 09:25:41;;;;;;;17.50;12.20;;;;;;;;;;107127;1256;61356;-84
2024/03/09 09:28:08;;;;;;;23.60;12.40;;;;;;;;;;107051;1257;61628;-79
2024/03/09 09:30:34;;;;;;;20.60;14.70;;;;;;;;;;107075;1256;61215;-83
2024/03/09 09:33:01;;;;;;;24.00;16.00;;;;;;;;;;107157;1252;61310;-84
2024/03/09 09:35:27;;;;;;;24.90;15.80;;;;;;;;;;107093;1256;59530;-79
2024/03/09 09:37:54;;;;;;;21.10;11.90;;;;;;;;;;106951;1258;63296;-82
2024/03/09 09:40:20;;;;;;;29.20;17.70;;;;;;;;;;107089;1256;61222;-82
2024/03/09 09:42:47;;;;;;;34.40;18.40;;;;;;;;;;107031;1253;61262;-82
2024/03/09 09:45:21;;;;;;;26.40;13.50;;;;;;;;;;107119;1255;61228;-82
2024/03/09 09:47:48;;;;;;;21.40;12.10;;;;;;;;;;107663;1254;61219;-79
2024/03/09 09:50:20;;;;;;;19.30;11.00;;;;;;;;;;107137;1256;61593;-82
2024/03/09 09:52:48;;;;;;;20.70;11.30;;;;;;;;;;107077;1254;61233;-84
2024/03/09 09:55:16;;;;;;;18.40;11.60;;;;;;;;;;107080;1257;61144;-79
2024/03/09 09:57:43;;;;;;;14.40;9.70;;;;;;;;;;107069;1257;61403;-84
2024/03/09 10:00:12;;;;;;;37.80;18.70;;;;;;;;;;107113;1254;61324;-83
2024/03/09 10:02:39;;;;;;;19.20;10.60;;;;;;;;;;107070;1255;62427;-83
2024/03/09 10:05:13;;;;;;;18.00;12.90;;;;;;;;;;106969;1257;61273;-79
2024/03/09 10:07:49;;;;;;;17.50;10.40;;;;;;;;;;107033;1254;61181;-83
2024/03/09 10:10:16;;;;;;;18.00;9.90;;;;;;;;;;106983;1258;61358;-83
2024/03/09 10:12:42;;;;;;;14.20;7.90;;;;;;;;;;107087;1254;61205;-82
2024/03/09 10:15:16;;;;;;;13.70;8.40;;;;;;;;;;106987;1260;61887;-84
2024/03/09 10:17:42;;;;;;;13.80;7.80;;;;;;;;;;107140;1254;61231;-79
2024/03/09 10:20:12;;;;;;;17.80;8.80;;;;;;;;;;107061;1254;61285;-79
2024/03/09 10:22:41;;;;;;;19.20;12.90;;;;;;;;;;107066;1256;62267;-79
2024/03/09 10:25:08;;;;;;;13.50;8.90;;;;;;;;;;106880;1260;61142;-79
2024/03/09 10:27:34;;;;;;;57.00;29.40;;;;;;;;;;106398;1259;62925;-78
2024/03/09 10:30:10;;;;;;;25.30;13.60;;;;;;;;;;106955;1258;61247;-79
2024/03/09 10:32:41;;;;;;;25.90;11.40;;;;;;;;;;107076;1253;61236;-82
2024/03/09 10:35:09;;;;;;;12.40;6.90;;;;;;;;;;107035;1252;61234;-82
2024/03/09 10:37:38;;;;;;;13.20;7.40;;;;;;;;;;107139;1256;61192;-79
2024/03/09 10:40:06;;;;;;;16.80;7.30;;;;;;;;;;106567;1251;61585;-79
2024/03/09 10:42:33;;;;;;;14.00;6.70;;;;;;;;;;109540;1251;58813;-79
2024/03/09 10:45:02;;;;;;;15.90;8.60;;;;;;;;;;109392;1254;59669;-84
2024/03/09 10:47:29;;;;;;;21.70;10.10;;;;;;;;;;107123;1255;61318;-79
2024/03/09 10:49:56;;;;;;;17.40;10.00;;;;;;;;;;106359;1254;61113;-83
2024/03/09 10:52:23;;;;;;;10.70;7.30;;;;;;;;;;106988;1254;61819;-84
2024/03/09 10:54:55;;;;;;;14.50;10.00;;;;;;;;;;107111;1256;61282;-83
2024/03/09 10:57:21;;;;;;;10.30;7.00;;;;;;;;;;107147;1254;61332;-83
2024/03/09 10:59:48;;;;;;;10.00;7.60;;;;;;;;;;107100;1257;61231;-79
2024/03/09 11:02:17;;;;;;;14.90;9.20;;;;;;;;;;107102;1256;59123;-83
2024/03/09 11:04:49;;;;;;;16.20;10.70;;;;;;;;;;107117;1254;61980;-83
2024/03/09 11:07:16;;;;;;;12.70;7.90;;;;;;;;;;106939;1252;61339;-83
2024/03/09 11:09:45;;;;;;;14.10;8.30;;;;;;;;;;107146;1256;61270;-79
2024/03/09 11:12:11;;;;;;;25.70;14.90;;;;;;;;;;107134;1253;61263;-83
2024/03/09 11:14:51;;;;;;;56.00;25.80;;;;;;;;;;106975;1254;61217;-79
2024/03/09 11:17:23;;;;;;;17.90;10.10;;;;;;;;;;107105;1256;61965;-79
2024/03/09 11:19:50;;;;;;;12.60;7.10;;;;;;;;;;107148;1254;59677;-84
2024/03/09 11:22:35;;;;;;;16.00;8.70;;;;;;;;;;107071;1254;61276;-79
2024/03/09 11:25:02;;;;;;;12.50;8.00;;;;;;;;;;107110;1254;61353;-83
2024/03/09 11:27:31;;;;;;;19.00;12.90;;;;;;;;;;107040;1255;61225;-84
2024/03/09 11:29:59;;;;;;;17.10;10.90;;;;;;;;;;107111;1254;61606;-78
2024/03/09 11:32:28;;;;;;;21.60;12.50;;;;;;;;;;106362;1254;61205;-84
2024/03/09 11:35:14;;;;;;;13.40;8.00;;;;;;;;;;107132;1257;61271;-78
2024/03/09 11:37:45;;;;;;;11.40;6.60;;;;;;;;;;106468;1256;61254;-84
2024/03/09 11:40:12;;;;;;;13.30;6.70;;;;;;;;;;107080;1253;61137;-79
2024/03/09 11:42:39;;;;;;;10.10;7.00;;;;;;;;;;106484;1254;61287;-78
2024/03/09 11:45:14;;;;;;;10.70;6.70;;;;;;;;;;107060;1254;61241;-83
2024/03/09 11:47:40;;;;;;;10.50;6.20;;;;;;;;;;106974;1257;61158;-83
2024/03/09 11:50:07;;;;;;;8.90;5.40;;;;;;;;;;106452;1254;61388;-79
2024/03/09 11:52:34;;;;;;;12.60;6.10;;;;;;;;;;107047;1254;61240;-79
2024/03/09 11:55:02;;;;;;;9.00;5.70;;;;;;;;;;107112;1254;61245;-78
2024/03/09 11:57:30;;;;;;;11.40;6.80;;;;;;;;;;106347;1254;61247;-84
2024/03/09 11:59:57;;;;;;;12.80;6.40;;;;;;;;;;106949;1254;62250;-83
2024/03/09 12:02:24;;;;;;;11.70;6.60;;;;;;;;;;106824;1254;61281;-83
2024/03/09 12:05:01;;;;;;;13.20;7.70;;;;;;;;;;106926;1251;61315;-83
2024/03/09 12:07:27;;;;;;;9.40;6.70;;;;;;;;;;106929;1254;61170;-78
2024/03/09 12:09:55;;;;;;;20.50;7.70;;;;;;;;;;106505;1254;61328;-79
2024/03/09 12:12:21;;;;;;;11.90;7.50;;;;;;;;;;107152;1251;61281;-79
2024/03/09 12:14:48;;;;;;;10.20;7.20;;;;;;;;;;107151;1256;61253;-81
2024/03/09 12:17:14;;;;;;;12.60;6.90;;;;;;;;;;106799;1259;61336;-79
2024/03/09 12:19:41;;;;;;;9.30;6.00;;;;;;;;;;106513;1256;61763;-80
2024/03/09 12:22:09;;;;;;;10.50;6.90;;;;;;;;;;106857;1257;61045;-79
2024/03/09 12:24:35;;;;;;;9.80;5.90;;;;;;;;;;106752;1251;61276;-79
2024/03/09 12:27:02;;;;;;;14.60;7.40;;;;;;;;;;107172;1251;61198;-79
2024/03/09 12:29:30;;;;;;;9.90;5.20;;;;;;;;;;106619;1251;61379;-83
2024/03/09 12:31:57;;;;;;;13.60;5.70;;;;;;;;;;106845;1257;61880;-79
2024/03/09 12:34:24;;;;;;;12.10;7.60;;;;;;;;;;106418;1254;61136;-83
2024/03/09 12:36:51;;;;;;;11.80;6.60;;;;;;;;;;107117;1254;61295;-84
2024/03/09 12:39:17;;;;;;;10.00;6.00;;;;;;;;;;107150;1254;61177;-83
2024/03/09 12:41:49;;;;;;;16.60;7.70;;;;;;;;;;106903;1254;61144;-79
2024/03/09 12:44:16;;;;;;;20.50;12.40;;;;;;;;;;106795;1251;61299;-84
2024/03/09 12:46:43;;;;;;;14.20;8.30;;;;;;;;;;107007;1251;61257;-84
2024/03/09 12:49:12;;;;;;;13.00;7.30;;;;;;;;;;106914;1256;61380;-84
2024/03/09 12:51:38;;;;;;;;;;;;;;;;;;107023;1256;61228;-79
2024/03/09 12:54:08;;;;;;;14.20;7.10;;;;;;;;;;107015;1257;59542;-80
2024/03/09 12:56:35;;;;;;;10.40;6.90;;;;;;;;;;106839;1252;61141;-79
2024/03/09 12:59:01;;;;;;;10.30;6.50;;;;;;;;;;106425;1254;61506;-79
2024/03/09 13:01:31;;;;;;;12.00;7.10;;;;;;;;;;106765;1255;61324;-83
2024/03/09 13:03:58;;;;;;;12.20;6.50;;;;;;;;;;106828;1254;61240;-83
2024/03/09 13:06:24;;;;;;;7.30;4.70;;;;;;;;;;106911;1254;61925;-83
2024/03/09 13:08:52;;;;;;;6.40;4.70;;;;;;;;;;106798;1257;62331;-79
2024/03/09 13:11:21;;;;;;;10.60;5.70;;;;;;;;;;106835;1257;61363;-79
2024/03/09 13:13:48;;;;;;;12.50;7.10;;;;;;;;;;106288;1257;61352;-83
2024/03/09 13:16:16;;;;;;;12.60;6.50;;;;;;;;;;106739;1254;61260;-79
2024/03/09 13:18:55;;;;;;;12.60;8.00;;;;;;;;;;106983;1254;61212;-83
2024/03/09 13:21:22;;;;;;;11.20;8.30;;;;;;;;;;106772;1254;61219;-78
2024/03/09 13:23:48;;;;;;;10.50;7.60;;;;;;;;;;106445;1254;61358;-83
2024/03/09 13:26:18;;;;;;;12.60;7.70;;;;;;;;;;106935;1251;61317;-83
2024/03/09 13:28:44;;;;;;;16.30;9.40;;;;;;;;;;107061;1251;61189;-83
2024/03/09 13:31:12;;;;;;;10.50;6.80;;;;;;;;;;106864;1251;61162;-84
2024/03/09 13:33:44;;;;;;;14.60;8.80;;;;;;;;;;107067;1254;61888;-78
2024/03/09 13:36:16;;;;;;;17.80;7.70;;;;;;;;;;107085;1251;61350;-78
2024/03/09 13:38:43;;;;;;;15.70;6.80;;;;;;;;;;106503;1264;61318;-83
2024/03/09 13:41:10;;;;;;;17.10;7.50;;;;;;;;;;107031;1253;61324;-78
2024/03/09 13:43:38;;;;;;;11.20;6.60;;;;;;;;;;106343;1253;61192;-83
2024/03/09 13:46:05;;;;;;;18.30;7.90;;;;;;;;;;106772;1257;61933;-79
2024/03/09 13:48:32;;;;;;;17.70;9.30;;;;;;;;;;106705;1251;61314;-83
2024/03/09 13:50:58;;;;;;;19.30;11.10;;;;;;;;;;106778;1251;61227;-79
2024/03/09 13:53:26;;;;;;;17.40;10.10;;;;;;;;;;106865;1254;61247;-79
2024/03/09 13:55:54;;;;;;;14.10;8.20;;;;;;;;;;106329;1254;61209;-84
2024/03/09 13:58:20;;;;;;;15.10;8.50;;;;;;;;;;106878;1254;61255;-79
2024/03/09 14:00:47;;;;;;;13.60;8.80;;;;;;;;;;106834;1254;61167;-80
2024/03/09 14:03:13;;;;;;;18.20;12.00;;;;;;;;;;106834;1254;59242;-80
2024/03/09 14:05:42;;;;;;;15.80;9.30;;;;;;;;;;106861;1254;61349;-84
2024/03/09 14:08:08;;;;;;;63.20;30.10;;;;;;;;;;106948;1253;61298;-84
2024/03/09 14:10:34;;;;;;;35.90;20.30;;;;;;;;;;107068;1254;61263;-84